Time;durP1;ratioP1;P1;durP2;ratioP2;P2;SDS_P1;SDS_P2;PMS_P1;PMS_P2;Temp;Humidity;BMP_temperature;BMP_pressure;BME280_temperature;BME280_humidity;BME280_pressure;Samples;Min_cycle;Max_cycle;Signal;HPM_P1;HPM_P2
2022/06/22 00:00:00;;;;;;;10.05;5.50;;;;;;;12.69;86.42;101301.66;5071922;28;20032;-68
2022/06/22 00:02:30;;;;;;;8.07;5.25;;;;;;;12.70;86.64;101298.16;5072971;28;20028;-68
2022/06/22 00:05:01;;;;;;;8.90;6.15;;;;;;;12.71;87.21;101295.50;5072586;28;20028;-69
2022/06/22 00:07:38;;;;;;;9.95;5.88;;;;;;;12.74;86.84;101300.66;5071962;28;20024;-69
2022/06/22 00:10:27;;;;;;;9.23;5.40;;;;;;;12.76;86.75;101300.63;5072843;28;20028;-69
2022/06/22 00:12:55;;;;;;;9.93;6.45;;;;;;;12.74;87.04;101289.34;5072356;28;20036;-68
2022/06/22 00:15:33;;;;;;;9.38;6.60;;;;;;;12.72;86.24;101291.13;5071899;28;20024;-69
2022/06/22 00:18:00;;;;;;;8.57;6.40;;;;;;;12.67;86.72;101288.63;5072391;28;20545;-69
2022/06/22 00:20:30;;;;;;;6.88;6.18;;;;;;;12.59;87.20;101278.38;5072594;28;20044;-69
2022/06/22 00:23:13;;;;;;;12.07;7.00;;;;;;;12.64;86.53;101284.31;5076430;28;20021;-69
2022/06/22 00:25:40;;;;;;;9.52;6.68;;;;;;;12.63;88.02;101287.84;5076292;28;20078;-69
2022/06/22 00:28:56;;;;;;;12.40;7.30;;;;;;;12.68;86.13;101290.34;5075666;28;20025;-69
2022/06/22 00:31:46;;;;;;;11.25;7.75;;;;;;;12.73;87.38;101287.63;5067107;28;20044;-68
2022/06/22 00:34:11;;;;;;;10.93;7.40;;;;;;;12.70;87.93;101278.09;5076341;28;20032;-69
2022/06/22 00:36:54;;;;;;;10.87;7.87;;;;;;;12.70;87.58;101272.00;5075509;28;20032;-69
2022/06/22 00:39:25;;;;;;;10.23;7.95;;;;;;;12.71;88.16;101273.72;5076104;28;20762;-68
2022/06/22 00:42:14;;;;;;;12.32;8.40;;;;;;;12.66;88.88;101276.47;5075221;28;20020;-68
2022/06/22 00:44:44;;;;;;;14.05;7.95;;;;;;;12.62;88.83;101280.91;5075881;28;20028;-69
2022/06/22 00:47:33;;;;;;;13.48;8.18;;;;;;;12.60;87.84;101287.06;5076336;28;20036;-68
2022/06/22 00:50:11;;;;;;;9.40;7.88;;;;;;;12.60;88.57;101294.91;5075478;28;20029;-69
2022/06/22 00:53:02;;;;;;;13.10;9.38;;;;;;;12.56;87.92;101280.22;5075923;28;20106;-69
2022/06/22 00:55:37;;;;;;;13.05;8.68;;;;;;;12.58;89.24;101275.78;5075004;28;20126;-69
2022/06/22 00:58:08;;;;;;;12.57;9.00;;;;;;;12.60;89.79;101276.63;5075824;28;20036;-69
2022/06/22 01:00:39;;;;;;;15.95;9.43;;;;;;;12.56;90.23;101265.38;5075549;28;20460;-69
2022/06/22 01:03:16;;;;;;;15.88;9.05;;;;;;;12.51;90.00;101256.75;5075007;28;20111;-68
2022/06/22 01:05:51;;;;;;;15.38;9.10;;;;;;;12.55;90.25;101261.00;5075466;28;20033;-69
2022/06/22 01:08:24;;;;;;;13.10;9.35;;;;;;;12.53;90.39;101267.19;5075999;28;20045;-69
2022/06/22 01:10:53;;;;;;;11.57;9.27;;;;;;;12.49;90.87;101283.84;5074948;28;20052;-69
2022/06/22 01:13:36;;;;;;;13.75;9.80;;;;;;;12.46;90.57;101291.75;5075689;28;20134;-68
2022/06/22 01:16:08;;;;;;;11.65;9.23;;;;;;;12.41;91.27;101295.34;5075594;28;20040;-68
2022/06/22 01:18:41;;;;;;;16.50;9.30;;;;;;;12.39;91.43;101299.78;5074575;28;20087;-68
2022/06/22 01:21:23;;;;;;;13.45;9.38;;;;;;;12.35;91.04;101299.88;5075704;28;20053;-69
2022/06/22 01:24:03;;;;;;;17.25;9.60;;;;;;;12.32;91.33;101298.19;5074545;28;20067;-69
2022/06/22 01:26:45;;;;;;;11.48;9.63;;;;;;;12.25;92.12;101285.28;5075390;28;20028;-68
2022/06/22 01:29:23;;;;;;;12.23;9.48;;;;;;;12.25;92.01;101290.53;5075597;28;20059;-69
2022/06/22 01:32:01;;;;;;;15.15;10.02;;;;;;;12.24;92.24;101289.66;5074348;28;20077;-68
2022/06/22 01:34:39;;;;;;;13.13;10.43;;;;;;;12.23;93.39;101267.06;5075095;28;20078;-68
2022/06/22 01:37:06;;;;;;;13.85;10.27;;;;;;;12.23;93.38;101248.75;5075346;28;20166;-69
2022/06/22 01:39:32;;;;;;;13.40;9.60;;;;;;;12.22;93.23;101248.78;5074476;28;20028;-68
2022/06/22 01:42:16;;;;;;;13.60;11.45;;;;;;;12.20;94.01;101246.22;5075369;28;20115;-68
2022/06/22 01:45:00;;;;;;;12.98;10.43;;;;;;;12.24;93.22;101267.91;5074125;28;20024;-69
2022/06/22 01:47:36;;;;;;;14.02;10.48;;;;;;;12.22;94.04;101265.31;5075100;28;20026;-69
2022/06/22 01:50:36;;;;;;;19.55;10.93;;;;;;;12.22;93.03;101261.84;5075106;28;20024;-68
2022/06/22 01:53:12;;;;;;;18.95;10.95;;;;;;;12.26;94.54;101258.25;5069963;28;20094;-69
2022/06/22 01:56:03;;;;;;;16.45;11.05;;;;;;;12.22;93.99;101260.06;5074273;28;20404;-69
2022/06/22 01:58:43;;;;;;;15.25;11.20;;;;;;;12.22;95.34;101254.84;5074759;28;20510;-69
2022/06/22 02:01:26;;;;;;;14.70;11.90;;;;;;;12.23;95.37;101253.09;5074894;28;20067;-69
2022/06/22 02:04:24;;;;;;;17.38;12.20;;;;;;;12.26;94.36;101248.69;5074471;28;20418;-69
2022/06/22 02:10:02;;;;;;;19.67;11.60;;;;;;;12.23;95.67;101250.47;5073581;28;20574;-68
2022/06/22 02:12:35;;;;;;;21.20;12.63;;;;;;;12.20;96.67;101259.28;5074508;28;20098;-69
2022/06/22 02:15:11;;;;;;;17.65;12.70;;;;;;;12.10;96.89;101245.56;5073951;28;20031;-69
2022/06/22 02:17:39;;;;;;;18.55;12.65;;;;;;;12.16;97.32;101244.53;5074073;28;20070;-69
2022/06/22 02:20:26;;;;;;;20.25;12.52;;;;;;;12.18;96.85;101258.44;5073500;28;20496;-68
2022/06/22 02:22:58;;;;;;;19.00;12.77;;;;;;;12.17;97.76;101257.59;5074058;28;20025;-69
2022/06/22 02:25:27;;;;;;;18.30;12.98;;;;;;;12.16;97.68;101268.06;5074557;28;20036;-69
2022/06/22 02:27:52;;;;;;;18.60;13.07;;;;;;;12.15;97.38;101255.91;5073254;28;20020;-69
2022/06/22 02:30:18;;;;;;;17.40;12.63;;;;;;;12.11;97.91;101249.03;5074238;28;20093;-68
2022/06/22 02:32:45;;;;;;;20.13;11.95;;;;;;;12.09;97.97;101242.97;5073759;28;20032;-69
2022/06/22 02:35:13;;;;;;;19.05;13.23;;;;;;;12.05;98.81;101241.34;5073178;28;20387;-69
2022/06/22 02:37:53;;;;;;;16.52;12.63;;;;;;;12.04;98.65;101237.88;5073601;28;20460;-69
2022/06/22 02:40:24;;;;;;;21.00;13.40;;;;;;;12.05;98.79;101236.09;5074105;28;20024;-69
2022/06/22 02:45:34;;;;;;;18.30;12.00;;;;;;;12.00;98.96;101237.94;5072851;28;20046;-69
2022/06/22 02:48:21;;;;;;;21.50;12.82;;;;;;;11.95;98.98;101236.31;5073208;28;20024;-69
2022/06/22 02:51:04;;;;;;;18.83;12.27;;;;;;;11.92;98.64;101231.16;5073577;28;20092;-69
2022/06/22 02:53:34;;;;;;;17.67;12.30;;;;;;;11.86;98.89;101235.66;5073878;28;20082;-68
2022/06/22 02:56:02;;;;;;;24.15;13.68;;;;;;;11.82;99.27;101240.06;5072664;28;20548;-69
2022/06/22 02:58:36;;;;;;;20.38;13.05;;;;;;;11.81;99.13;101242.72;5073796;28;20078;-68
2022/06/22 03:01:12;;;;;;;17.80;12.23;;;;;;;11.75;99.26;101242.84;5073768;28;20034;-69
2022/06/22 03:03:40;;;;;;;16.42;13.15;;;;;;;11.71;99.43;101257.75;5072534;28;20054;-68
2022/06/22 03:06:09;;;;;;;21.08;13.00;;;;;;;11.72;99.42;101254.22;5073502;28;20040;-68
2022/06/22 03:08:35;;;;;;;17.40;13.20;;;;;;;11.66;99.73;101254.34;5073009;28;20025;-69
2022/06/22 03:11:03;;;;;;;15.82;12.32;;;;;;;11.62;99.92;101253.56;5072601;28;20461;-69
2022/06/22 03:13:38;;;;;;;17.90;13.00;;;;;;;11.61;100.00;101251.84;5073559;28;20089;-68
2022/06/22 03:16:05;;;;;;;16.17;13.38;;;;;;;11.57;99.92;101238.88;5073225;28;20049;-69
2022/06/22 03:18:34;;;;;;;22.08;13.98;;;;;;;11.60;100.00;101239.66;5073275;28;20036;-68
2022/06/22 03:21:07;;;;;;;19.50;13.30;;;;;;;11.56;99.97;101250.22;5073220;28;20103;-68
2022/06/22 03:23:56;;;;;;;17.35;13.30;;;;;;;11.54;99.29;101233.72;5072387;28;20122;-69
2022/06/22 03:26:36;;;;;;;16.10;12.88;;;;;;;11.54;100.00;101228.50;5073314;28;20027;-68
2022/06/22 03:29:04;;;;;;;20.60;15.32;;;;;;;11.55;100.00;101230.22;5073211;28;20028;-69
2022/06/22 03:31:41;;;;;;;20.17;13.82;;;;;;;11.54;100.00;101223.25;5072189;28;20464;-68
2022/06/22 03:34:17;;;;;;;18.10;13.98;;;;;;;11.53;100.00;101221.56;5073183;28;20028;-68
2022/06/22 03:36:51;;;;;;;19.98;14.40;;;;;;;11.55;100.00;101230.22;5072831;28;20020;-69
2022/06/22 03:39:20;;;;;;;17.40;14.15;;;;;;;11.57;100.00;101236.25;5072086;28;20388;-68
2022/06/22 03:41:55;;;;;;;23.75;14.25;;;;;;;11.55;100.00;101233.69;5072645;28;20024;-69
2022/06/22 03:44:30;;;;;;;23.80;14.52;;;;;;;11.57;100.00;101224.06;5072340;28;20032;-69
2022/06/22 03:47:05;;;;;;;26.00;14.77;;;;;;;11.62;100.00;101210.91;5072800;28;20442;-68
2022/06/22 03:49:46;;;;;;;20.75;14.98;;;;;;;11.62;100.00;101210.91;5072967;28;20024;-69
2022/06/22 03:52:42;;;;;;;21.13;14.70;;;;;;;11.68;100.00;101216.00;5071984;28;20020;-68
2022/06/22 03:55:12;;;;;;;25.77;15.80;;;;;;;11.73;100.00;101225.44;5072332;28;20515;-69
2022/06/22 03:57:43;;;;;;;24.48;15.95;;;;;;;11.79;100.00;101219.22;5072453;28;20104;-69
2022/06/22 04:00:10;;;;;;;22.65;14.98;;;;;;;11.83;100.00;101230.47;5072125;28;20024;-68
2022/06/22 04:02:36;;;;;;;21.35;15.68;;;;;;;11.87;100.00;101232.13;5072531;28;20055;-69
2022/06/22 04:05:03;;;;;;;21.20;14.95;;;;;;;11.93;100.00;101226.78;5072639;28;20464;-69
2022/06/22 04:07:39;;;;;;;21.27;15.77;;;;;;;11.96;100.00;101203.19;5072022;28;20021;-68
2022/06/22 04:10:17;;;;;;;23.98;15.70;;;;;;;11.99;100.00;101202.28;5072865;28;20029;-68
2022/06/22 04:12:47;;;;;;;24.52;16.67;;;;;;;12.05;100.00;101210.81;5071598;28;20028;-69
2022/06/22 04:15:28;;;;;;;21.13;16.25;;;;;;;12.08;100.00;101215.13;5072556;28;20040;-69
2022/06/22 04:17:58;;;;;;;18.55;15.88;;;;;;;12.14;100.00;101215.84;5072518;28;20068;-69
2022/06/22 04:20:52;;;;;;;21.77;16.85;;;;;;;12.19;100.00;101227.03;5071960;28;20024;-69
2022/06/22 04:23:38;;;;;;;20.98;16.05;;;;;;;12.21;100.00;101224.38;5072489;28;20108;-69
2022/06/22 04:26:12;;;;;;;22.13;17.08;;;;;;;12.25;100.00;101220.81;5072689;28;20097;-69
2022/06/22 04:28:43;;;;;;;24.92;17.38;;;;;;;12.29;100.00;101224.19;5071187;28;20035;-69
2022/06/22 04:31:15;;;;;;;27.58;17.00;;;;;;;12.30;100.00;101226.78;5072679;28;20048;-69
2022/06/22 04:33:45;;;;;;;25.40;17.40;;;;;;;12.39;100.00;101236.13;5071671;28;20385;-69
2022/06/22 04:36:16;;;;;;;29.10;16.80;;;;;;;12.41;100.00;101244.81;5072512;28;20024;-69
2022/06/22 04:38:53;;;;;;;29.35;18.08;;;;;;;12.47;100.00;101238.59;5072244;28;20029;-69
2022/06/22 04:41:34;;;;;;;23.52;17.63;;;;;;;12.52;100.00;101244.53;5071578;28;20491;-69
2022/06/22 04:44:03;;;;;;;29.50;17.92;;;;;;;12.59;100.00;101246.13;5072382;28;20024;-68
2022/06/22 04:46:34;;;;;;;23.85;17.48;;;;;;;12.64;100.00;101246.84;5072217;28;20020;-69
2022/06/22 04:49:35;;;;;;;21.38;16.55;;;;;;;12.70;100.00;101246.69;5071545;28;20028;-68
2022/06/22 04:52:17;;;;;;;32.42;17.90;;;;;;;12.77;100.00;101236.94;5070885;28;20047;-69
2022/06/22 04:54:44;;;;;;;23.17;17.50;;;;;;;12.82;100.00;101245.53;5071076;28;20041;-69
2022/06/22 04:57:21;;;;;;;26.15;17.98;;;;;;;12.86;100.00;101240.16;5072449;28;20025;-68
2022/06/22 04:59:48;;;;;;;26.25;17.50;;;;;;;12.92;99.55;101241.78;5072046;28;20044;-69
2022/06/22 05:02:17;;;;;;;23.45;17.13;;;;;;;13.01;99.92;101240.66;5071457;28;20486;-69
2022/06/22 05:04:46;;;;;;;30.45;18.05;;;;;;;13.04;99.71;101248.41;5072100;28;20040;-69
2022/06/22 05:07:35;;;;;;;21.35;17.15;;;;;;;13.13;99.32;101259.50;5072272;28;20043;-68
2022/06/22 05:10:16;;;;;;;26.00;17.85;;;;;;;13.17;99.05;101249.78;5074942;28;20020;-69
2022/06/22 05:12:49;;;;;;;25.33;18.15;;;;;;;13.24;99.08;101259.25;5075543;28;20070;-69
2022/06/22 05:15:27;;;;;;;;;;;;;;;13.31;97.83;101259.94;5076070;28;20086;-69
2022/06/22 05:17:53;;;;;;;25.85;16.85;;;;;;;13.41;98.04;101263.16;5074436;28;20243;-69
2022/06/22 05:20:47;;;;;;;22.02;15.45;;;;;;;13.50;97.30;101255.88;5075789;28;20063;-69
2022/06/22 05:23:13;;;;;;;27.88;18.15;;;;;;;13.57;97.63;101246.94;5074816;28;20066;-68
2022/06/22 05:25:42;;;;;;;22.05;16.80;;;;;;;13.68;96.78;101249.25;5075238;28;20101;-70
2022/06/22 05:28:13;;;;;;;23.85;17.05;;;;;;;13.75;96.36;101261.25;5075398;28;20028;-69
2022/06/22 05:30:46;;;;;;;21.42;16.08;;;;;;;13.80;95.74;101263.75;5074495;28;20059;-69
2022/06/22 05:33:17;;;;;;;24.67;17.15;;;;;;;13.79;96.00;101260.25;5075539;28;20024;-69
2022/06/22 05:35:47;;;;;;;22.88;17.10;;;;;;;13.76;96.24;101249.84;5075275;28;20029;-69
2022/06/22 05:38:16;;;;;;;24.73;16.15;;;;;;;13.84;96.12;101265.38;5074479;28;20032;-69
2022/06/22 05:40:44;;;;;;;24.65;17.52;;;;;;;13.91;96.19;101261.66;5074794;28;20399;-69
2022/06/22 05:43:09;;;;;;;22.30;17.10;;;;;;;13.97;95.45;101273.72;5075366;28;20031;-69
2022/06/22 05:45:55;;;;;;;25.23;16.80;;;;;;;13.99;95.86;101275.38;5074207;28;20017;-69
2022/06/22 05:48:23;;;;;;;26.00;17.00;;;;;;;14.05;95.02;101277.81;5075250;28;20048;-69
2022/06/22 05:51:13;;;;;;;24.13;17.73;;;;;;;14.12;94.85;101286.34;5074254;28;20020;-69
2022/06/22 05:53:48;;;;;;;23.60;17.63;;;;;;;14.09;94.43;101281.19;5074755;28;20483;-69
2022/06/22 05:56:22;;;;;;;22.50;17.30;;;;;;;14.21;94.31;101307.03;5075157;28;20123;-69
2022/06/22 05:59:27;;;;;;;24.88;16.95;;;;;;;14.30;93.63;101298.03;5073808;28;20028;-69
2022/06/22 06:02:16;;;;;;;26.67;17.08;;;;;;;14.40;93.51;101294.19;5070484;28;20488;-69
2022/06/22 06:04:50;;;;;;;25.20;17.08;;;;;;;14.44;92.72;101292.34;5074494;28;20039;-69
2022/06/22 06:07:25;;;;;;;22.05;16.88;;;;;;;14.48;92.35;101293.94;5074492;28;20059;-69
2022/06/22 06:09:50;;;;;;;24.55;16.33;;;;;;;14.52;92.30;101290.38;5074590;28;20055;-69
2022/06/22 06:12:39;;;;;;;24.05;16.33;;;;;;;14.55;91.88;101285.03;5073923;28;20060;-69
2022/06/22 06:15:06;;;;;;;22.52;16.70;;;;;;;14.61;92.92;101294.44;5074742;28;20025;-69
2022/06/22 06:17:43;;;;;;;25.20;17.30;;;;;;;14.63;92.51;101284.75;5074462;28;20025;-69
2022/06/22 06:20:21;;;;;;;22.55;16.30;;;;;;;14.70;91.12;101300.25;5073409;28;20107;-68
2022/06/22 06:22:50;;;;;;;22.05;15.10;;;;;;;14.78;90.11;101296.50;5074264;28;20020;-69
2022/06/22 06:28:22;;;;;;;19.42;15.05;;;;;;;14.97;89.56;101303.69;5073464;28;20043;-69
2022/06/22 06:30:51;;;;;;;19.55;15.52;;;;;;;15.12;87.58;101293.59;5073773;28;20480;-69
2022/06/22 06:33:32;;;;;;;22.98;15.48;;;;;;;15.23;88.39;101301.91;5073404;28;20559;-69
2022/06/22 06:36:19;;;;;;;26.02;16.70;;;;;;;15.36;87.66;101311.06;5074267;28;20046;-69
2022/06/22 06:38:52;;;;;;;22.02;14.95;;;;;;;15.51;86.23;101303.56;5073831;28;20033;-69
2022/06/22 06:41:24;;;;;;;19.67;16.17;;;;;;;15.61;85.87;101299.69;5073490;28;20162;-69
2022/06/22 06:43:57;;;;;;;22.13;16.48;;;;;;;15.73;85.59;101286.13;5073812;28;20035;-69
2022/06/22 06:46:27;;;;;;;18.95;16.05;;;;;;;15.81;84.55;101275.31;5074064;28;20036;-69
2022/06/22 06:49:11;;;;;;;26.58;16.95;;;;;;;15.95;85.13;101270.38;5072727;28;20047;-69
2022/06/22 06:51:42;;;;;;;22.50;15.38;;;;;;;16.03;84.50;101283.22;5073656;28;20034;-69
2022/06/22 06:54:20;;;;;;;22.40;15.45;;;;;;;16.10;83.02;101275.03;5072901;28;20090;-69
2022/06/22 06:56:55;;;;;;;20.83;15.20;;;;;;;16.13;82.01;101271.44;5073514;28;20052;-69
2022/06/22 06:59:24;;;;;;;19.38;15.10;;;;;;;16.13;81.36;101274.91;5073756;28;20083;-69
2022/06/22 07:01:50;;;;;;;18.67;14.48;;;;;;;16.11;81.17;101270.63;5072483;28;20024;-69
2022/06/22 07:04:35;;;;;;;26.10;15.25;;;;;;;16.07;82.69;101271.66;5073725;28;20112;-69
2022/06/22 07:07:21;;;;;;;19.60;14.40;;;;;;;16.05;82.75;101265.59;5073244;28;20111;-69
2022/06/22 07:09:49;;;;;;;22.42;15.57;;;;;;;16.10;83.60;101261.03;5072439;28;20038;-69
2022/06/22 07:12:30;;;;;;;21.58;14.95;;;;;;;16.17;81.73;101267.75;5073364;28;20111;-69
2022/06/22 07:14:58;;;;;;;18.70;14.73;;;;;;;16.31;81.06;101270.69;5073238;28;20078;-69
2022/06/22 07:17:24;;;;;;;25.08;14.18;;;;;;;16.52;79.40;101265.47;5072614;28;20021;-69
2022/06/22 07:20:01;;;;;;;16.77;13.65;;;;;;;16.79;79.58;101258.22;5072991;28;20021;-69
2022/06/22 07:22:43;;;;;;;23.95;15.20;;;;;;;16.87;78.72;101253.47;5072482;28;20029;-69
2022/06/22 07:25:16;;;;;;;27.35;14.55;;;;;;;16.97;77.21;101252.16;5073495;28;20050;-69
2022/06/22 07:27:52;;;;;;;22.88;13.75;;;;;;;17.13;75.46;101254.09;5072948;28;20495;-69
2022/06/22 07:30:46;;;;;;;18.23;12.82;;;;;;;17.28;75.76;101248.16;5071957;28;20138;-69
2022/06/22 07:33:27;;;;;;;19.15;12.63;;;;;;;17.48;75.24;101237.56;5073022;28;20036;-69
2022/06/22 07:36:01;;;;;;;17.17;11.60;;;;;;;17.65;74.42;101241.19;5072927;28;20025;-69
2022/06/22 07:38:42;;;;;;;17.10;12.63;;;;;;;17.78;73.82;101235.31;5072264;28;20032;-69
2022/06/22 07:41:24;;;;;;;17.38;12.70;;;;;;;17.96;73.01;101241.50;5073007;28;20023;-69
2022/06/22 07:44:00;;;;;;;21.00;11.93;;;;;;;18.20;72.82;101241.25;5072243;28;20020;-69
2022/06/22 07:46:37;;;;;;;15.88;12.45;;;;;;;18.45;71.57;101249.66;5072840;28;20390;-69
2022/06/22 07:49:26;;;;;;;17.00;11.80;;;;;;;18.56;71.57;101250.91;5072985;28;20034;-69
2022/06/22 07:51:55;;;;;;;18.95;12.25;;;;;;;18.61;69.36;101248.91;5071686;28;20074;-69
2022/06/22 07:54:36;;;;;;;15.18;12.35;;;;;;;18.69;69.91;101244.06;5072512;28;20052;-73
2022/06/22 07:57:16;;;;;;;18.05;11.68;;;;;;;18.69;69.84;101246.72;5072987;28;20024;-73
2022/06/22 07:59:58;;;;;;;16.38;10.90;;;;;;;18.80;69.70;101252.34;5071665;28;20021;-74
2022/06/22 08:02:32;;;;;;;15.82;10.20;;;;;;;18.87;69.00;101248.44;5072764;28;20033;-70
2022/06/22 08:05:18;;;;;;;14.45;10.10;;;;;;;18.86;67.71;101244.09;5072098;28;20040;-70
2022/06/22 08:07:58;;;;;;;15.25;9.80;;;;;;;18.68;67.43;101245.00;5072463;28;20115;-70
2022/06/22 08:10:32;;;;;;;12.85;9.88;;;;;;;18.68;67.32;101253.78;5072682;28;20468;-69
2022/06/22 08:13:06;;;;;;;16.13;9.02;;;;;;;18.63;65.56;101255.78;5072184;28;20106;-70
2022/06/22 08:15:38;;;;;;;12.88;9.18;;;;;;;18.65;64.90;101255.72;5072929;28;20029;-70
2022/06/22 08:18:04;;;;;;;15.10;8.68;;;;;;;18.73;65.24;101256.22;5072776;28;20028;-70
2022/06/22 08:20:35;;;;;;;11.23;7.68;;;;;;;18.85;65.41;101255.59;5071931;28;20040;-70
2022/06/22 08:23:04;;;;;;;13.48;7.50;;;;;;;18.80;64.48;101260.28;5072563;28;20020;-70
2022/06/22 08:25:31;;;;;;;15.73;9.00;;;;;;;18.85;63.91;101267.94;5072750;28;20025;-69
2022/06/22 08:27:58;;;;;;;14.50;8.50;;;;;;;18.92;64.02;101267.53;5072100;28;20024;-70
2022/06/22 08:30:24;;;;;;;15.07;9.23;;;;;;;19.12;65.81;101268.31;5072592;28;20107;-70
2022/06/22 08:33:04;;;;;;;10.07;9.02;;;;;;;19.29;64.53;101268.28;5071409;28;20048;-70
2022/06/22 08:35:42;;;;;;;12.23;9.40;;;;;;;19.38;63.09;101261.63;5072357;28;20031;-70
2022/06/22 08:38:18;;;;;;;14.45;8.57;;;;;;;19.51;64.58;101253.91;5072577;28;20486;-70
2022/06/22 08:41:18;;;;;;;16.10;8.32;;;;;;;19.70;64.38;101267.00;5071572;28;20055;-70
2022/06/22 08:43:57;;;;;;;10.85;7.70;;;;;;;19.83;62.83;101268.88;5074849;28;20028;-70
2022/06/22 08:46:41;;;;;;;12.75;7.45;;;;;;;19.98;62.64;101268.97;5076432;28;20047;-69
2022/06/22 08:49:18;;;;;;;11.68;7.70;;;;;;;20.13;61.62;101265.47;5076364;28;20031;-70
2022/06/22 08:52:04;;;;;;;12.07;7.13;;;;;;;20.20;60.46;101269.47;5075856;28;20021;-70
2022/06/22 08:54:53;;;;;;;11.38;6.88;;;;;;;20.34;61.00;101260.75;5074946;28;20114;-70
2022/06/22 08:57:22;;;;;;;10.15;6.45;;;;;;;20.48;60.10;101252.00;5075913;28;20107;-70
2022/06/22 09:00:05;;;;;;;8.38;6.28;;;;;;;20.59;58.55;101257.53;5075641;28;20472;-70
2022/06/22 09:03:00;;;;;;;8.48;6.07;;;;;;;20.68;57.79;101251.69;5075190;28;20025;-70
2022/06/22 09:05:43;;;;;;;7.30;6.50;;;;;;;20.75;57.88;101245.09;5072666;28;20037;-70
2022/06/22 09:08:24;;;;;;;8.52;5.60;;;;;;;20.83;56.77;101247.28;5075092;28;20031;-72
2022/06/22 09:11:26;;;;;;;13.38;6.78;;;;;;;20.83;57.51;101249.94;5075460;28;20095;-70
2022/06/22 09:14:13;;;;;;;10.32;5.45;;;;;;;20.78;56.81;101250.19;5075592;28;20039;-70
2022/06/22 09:17:16;;;;;;;11.25;5.15;;;;;;;20.79;56.39;101257.19;5074629;28;20028;-70
2022/06/22 09:20:09;;;;;;;13.10;6.57;;;;;;;20.88;56.55;101253.16;5075279;28;20538;-70
2022/06/22 09:22:51;;;;;;;7.70;5.32;;;;;;;21.01;54.71;101259.41;5074661;28;20392;-70
2022/06/22 09:25:37;;;;;;;6.82;4.00;;;;;;;21.12;54.38;101264.06;5075496;28;20028;-70
2022/06/22 09:28:21;;;;;;;9.68;4.45;;;;;;;21.17;52.90;101259.34;5075693;28;20025;-70
2022/06/22 09:30:58;;;;;;;7.80;3.80;;;;;;;21.26;50.88;101269.38;5074480;28;20111;-70
2022/06/22 09:33:57;;;;;;;6.75;4.13;;;;;;;21.32;53.37;101273.47;5075493;28;20060;-70
2022/06/22 09:37:02;;;;;;;9.75;4.10;;;;;;;21.43;53.30;101271.03;5074610;28;20035;-70
2022/06/22 09:39:53;;;;;;;9.18;4.20;;;;;;;21.55;52.67;101264.13;5075101;28;20025;-70
2022/06/22 09:42:39;;;;;;;9.90;4.50;;;;;;;21.74;51.20;101269.09;5075161;28;20111;-70
2022/06/22 09:45:14;;;;;;;9.27;4.57;;;;;;;21.76;49.67;101272.50;5074456;28;20087;-70
2022/06/22 09:48:02;;;;;;;10.05;4.10;;;;;;;21.82;49.82;101266.81;5074822;28;20452;-70
2022/06/22 09:50:52;;;;;;;10.18;3.97;;;;;;;22.01;50.47;101273.56;5074457;28;20029;-70
2022/06/22 09:53:35;;;;;;;5.32;3.60;;;;;;;22.18;50.49;101262.75;5074557;28;20034;-70
2022/06/22 09:56:25;;;;;;;8.02;4.13;;;;;;;22.25;47.82;101264.06;5074807;28;20072;-70
2022/06/22 09:59:14;;;;;;;10.48;3.30;;;;;;;22.39;50.78;101258.66;5073677;28;20044;-70
2022/06/22 10:01:56;;;;;;;9.68;3.80;;;;;;;22.53;48.62;101255.13;5074653;28;20109;-70
2022/06/22 10:04:24;;;;;;;8.80;4.25;;;;;;;22.59;48.51;101249.34;5074175;28;20033;-70
2022/06/22 10:06:52;;;;;;;8.73;3.50;;;;;;;22.75;49.86;101245.66;5074667;28;20071;-70
2022/06/22 10:09:43;;;;;;;8.70;4.13;;;;;;;22.85;49.57;101252.06;5074564;28;20447;-70
2022/06/22 10:12:45;;;;;;;6.88;4.28;;;;;;;22.97;48.87;101243.28;5074017;28;20115;-70
2022/06/22 10:15:38;;;;;;;4.75;3.78;;;;;;;23.03;47.40;101248.19;5074483;28;20050;-70
2022/06/22 10:18:10;;;;;;;6.38;3.58;;;;;;;23.08;47.38;101239.88;5073965;28;20035;-70
2022/06/22 10:20:53;;;;;;;8.40;4.28;;;;;;;23.00;45.94;101235.09;5074141;28;20110;-70
2022/06/22 10:23:34;;;;;;;5.72;3.60;;;;;;;23.06;46.55;101229.34;5074502;28;20028;-70
2022/06/22 10:26:09;;;;;;;8.32;3.40;;;;;;;23.22;46.38;101226.47;5073481;28;20058;-70
2022/06/22 10:29:04;;;;;;;5.70;3.45;;;;;;;23.37;46.91;101229.84;5074169;28;20074;-70
2022/06/22 10:32:04;;;;;;;6.03;3.60;;;;;;;23.47;46.23;101241.53;5074336;28;20035;-70
2022/06/22 10:35:12;;;;;;;6.78;3.70;;;;;;;23.54;45.14;101231.28;5073294;28;20040;-70
2022/06/22 10:37:56;;;;;;;7.15;3.78;;;;;;;23.54;45.76;101237.47;5054273;28;20041;-70
2022/06/22 10:46:14;;;;;;;6.97;3.13;;;;;;;23.98;43.34;101225.44;5074036;28;20043;-70
2022/06/22 10:48:52;;;;;;;6.13;3.38;;;;;;;23.98;44.48;101228.09;5073652;28;20054;-70
2022/06/22 10:51:45;;;;;;;5.63;3.45;;;;;;;24.17;43.16;101224.06;5073988;28;20078;-71
2022/06/22 10:54:24;;;;;;;7.35;2.95;;;;;;;24.40;43.31;101220.53;5072854;28;20075;-71
2022/06/22 10:57:18;;;;;;;6.63;3.58;;;;;;;24.62;42.98;101232.22;5073487;28;20031;-71
2022/06/22 11:00:27;;;;;;;6.15;2.95;;;;;;;24.84;43.46;101218.94;5073193;28;20548;-70
2022/06/22 11:03:24;;;;;;;7.80;3.30;;;;;;;24.90;43.35;101210.47;5063056;28;20044;-71
2022/06/22 11:05:55;;;;;;;5.57;2.78;;;;;;;25.08;42.01;101221.53;5072336;28;20484;-71
2022/06/22 11:08:27;;;;;;;6.32;3.50;;;;;;;24.96;39.05;101214.50;5072952;28;20027;-70
2022/06/22 11:11:00;;;;;;;5.00;4.00;;;;;;;24.96;40.63;101220.66;5073384;28;20024;-70
2022/06/22 11:13:47;;;;;;;7.22;3.80;;;;;;;25.02;40.18;101219.34;5073464;28;20032;-71
2022/06/22 11:16:18;;;;;;;6.43;3.28;;;;;;;25.09;40.28;101217.88;5072461;28;20029;-70
2022/06/22 11:19:22;;;;;;;8.05;3.30;;;;;;;25.29;40.79;101223.50;5073119;28;20036;-70
2022/06/22 11:21:47;;;;;;;5.53;3.08;;;;;;;25.54;42.26;101215.22;5072308;28;20035;-70
2022/06/22 11:24:34;;;;;;;5.73;3.60;;;;;;;25.73;39.61;101214.56;5073251;28;20392;-70
2022/06/22 11:33:02;;;;;;;6.28;2.63;;;;;;;26.12;34.35;101210.47;5073125;28;20047;-71
2022/06/22 11:35:39;;;;;;;6.13;2.70;;;;;;;26.28;35.70;101223.38;5072544;28;20033;-71
2022/06/22 11:38:16;;;;;;;5.32;2.80;;;;;;;26.44;37.35;101220.28;5073173;28;20032;-70
2022/06/22 11:41:30;;;;;;;5.03;2.72;;;;;;;26.52;38.13;101233.91;5072825;28;20035;-70
2022/06/22 11:44:16;;;;;;;7.88;3.53;;;;;;;26.60;35.91;101226.06;5049786;28;20033;-71
2022/06/22 11:46:53;;;;;;;9.15;3.63;;;;;;;26.81;35.35;101233.22;5050549;28;20397;-71
2022/06/22 11:49:34;;;;;;;6.75;3.30;;;;;;;27.47;35.43;101224.84;5067325;28;20032;-71
2022/06/22 11:52:37;;;;;;;6.00;3.40;;;;;;;28.41;34.12;101215.38;5073046;28;20024;-71
2022/06/22 11:55:23;;;;;;;5.57;2.90;;;;;;;29.75;32.77;101216.03;5072685;28;20041;-71
2022/06/22 11:58:03;;;;;;;10.30;2.95;;;;;;;30.99;29.58;101217.75;5071653;28;20047;-71
2022/06/22 12:00:46;;;;;;;6.15;2.47;;;;;;;32.60;28.17;101219.34;5072996;28;20060;-71
2022/06/22 12:03:30;;;;;;;5.13;2.65;;;;;;;33.99;27.43;101209.81;5072856;28;20491;-71
2022/06/22 12:06:14;;;;;;;4.28;2.40;;;;;;;35.07;26.01;101204.09;5071650;28;20430;-71
2022/06/22 12:08:42;;;;;;;5.53;2.90;;;;;;;35.55;22.54;101215.34;5072598;28;20020;-71
2022/06/22 12:11:37;;;;;;;4.45;2.50;;;;;;;36.16;23.85;101203.25;5072033;28;20111;-71
2022/06/22 12:17:19;;;;;;;4.38;2.20;;;;;;;36.49;21.57;101188.09;5074377;28;20439;-71
2022/06/22 12:19:53;;;;;;;3.85;2.50;;;;;;;36.99;20.74;101188.84;5075433;28;20460;-71
2022/06/22 12:22:43;;;;;;;5.15;2.40;;;;;;;37.26;20.42;101178.06;5076733;28;20029;-71
2022/06/22 12:25:27;;;;;;;5.05;2.42;;;;;;;37.56;19.38;101177.78;5076007;28;20036;-71
2022/06/22 12:28:12;;;;;;;2.38;2.10;;;;;;;37.77;20.52;101174.03;5076573;28;20444;-71